• Join FlightAware (Why Join?)
  • Login
  • US Flag 
05:23AM EDT


 

Airport Tracker/Info


-or-


 

Live Flight TrackerFlight Track Log ✈ N6ZQ ✈ 28-Jul-2013 ✈ KHAF - C35

Flight Track Log - Related Links

Times and Time Zones

All times are in EDT time to prevent confusion due to time zone crossing. See the N6ZQ flight status page for this flight to view local times or setup timezone preferences in your user account.

Time Position Orientation Groundspeed Altitude Reporting Facility
EDT Latitude Longitude Course Direction KTS MPH feet Rate Location/Type
12:38PM 37.4500 -122.4333 North 138 159 2,600  Level Northern Cal TRACON
12:39PM 37.4333 -122.3833 113° Southeast 168 193 3,400 720 Climbing Northern Cal TRACON
12:40PM 37.4161 -122.3614 135° Southeast 166 191 3,800 300 Climbing Oakland Center
12:41PM 37.4378 -122.3086 63° Northeast 198 228 3,900 420 Climbing Oakland Center
12:42PM 37.4833 -122.2831 24° Northeast 187 215 4,700 720 Climbing Oakland Center
12:43PM 37.4481 -122.2667 North  Level FlightAware Approximate
12:43PM 37.5383 -122.2533 23° Northeast 182 209 5,400  Level Oakland Center
12:44PM 37.5819 -122.2242 28° Northeast 179 206 6,000 720 Climbing Oakland Center
12:45PM 37.6164 -122.1803 45° Northeast 176 203 6,900 780 Climbing Oakland Center
12:46PM 37.6542 -122.1422 39° Northeast 175 201 7,600 600 Climbing Oakland Center
12:47PM 37.6900 -122.0983 44° Northeast 178 205 8,200 540 Climbing Oakland Center
12:48PM 37.7292 -122.0569 40° Northeast 182 209 8,800 600 Climbing Oakland Center
12:49PM 37.7703 -122.0178 37° Northeast 185 213 9,500 720 Climbing Oakland Center
12:50PM 37.8153 -121.9717 39° Northeast 176 203 10,300 660 Climbing Oakland Center
12:51PM 37.8533 -121.9322 39° Northeast 177 204 10,900 300 Climbing Oakland Center
12:52PM 37.8869 -121.8847 48° Northeast 181 208 11,000 120 Climbing Oakland Center
12:53PM 37.9214 -121.8303 51° Northeast 197 227 11,200  Climbing Oakland Center
12:54PM 37.9592 -121.7758 49° Northeast 204 235 11,000 -180 Descending Oakland Center
12:55PM 37.9992 -121.7217 47° Northeast 212 244 10,900 -60 Descending Oakland Center
12:56PM 38.0386 -121.6664 48° Northeast 212 244 10,900  Level Oakland Center
12:57PM 38.0778 -121.6117 48° Northeast 210 242 10,900  Level Oakland Center
12:58PM 38.1233 -121.5458 49° Northeast 207 238 10,900  Level Oakland Center
12:59PM 38.1633 -121.4931 46° Northeast 207 238 10,900  Level Oakland Center
01:00PM 38.1958 -121.4467 48° Northeast 201 231 11,000  Climbing Oakland Center
01:01PM 38.2422 -121.3814 48° Northeast 205 236 11,000  Level Oakland Center
01:02PM 38.2803 -121.3278 48° Northeast 206 237 11,000  Level Oakland Center
01:03PM 38.3172 -121.2728 49° Northeast 206 237 11,000  Level Oakland Center
01:04PM 38.3547 -121.2194 48° Northeast 205 236 11,000  Level Oakland Center
01:05PM 38.3922 -121.1647 49° Northeast 206 237 11,000  Level Oakland Center
01:06PM 38.4306 -121.1100 48° Northeast 210 242 11,000  Level Oakland Center
01:07PM 38.4767 -121.0444 48° Northeast 210 242 11,000  Level Oakland Center
01:08PM 38.5147 -120.9883 49° Northeast 212 244 11,000  Level Oakland Center
01:09PM 38.5539 -120.9325 48° Northeast 213 245 11,000  Level Oakland Center
01:10PM 38.5925 -120.8775 48° Northeast 211 243 11,000  Level Oakland Center
01:12PM 38.6308 -120.8206 49° Northeast 212 244 11,000  Level Oakland Center
01:13PM 38.6694 -120.7653 48° Northeast 210 242 11,000  Level Oakland Center
01:14PM 38.7072 -120.7086 49° Northeast 211 243 11,000  Level Oakland Center
01:15PM 38.7536 -120.6411 49° Northeast 214 246 11,000 240 Level Oakland Center
01:16PM 38.7897 -120.5900 48° Northeast 197 227 11,600 420 Climbing Oakland Center
01:17PM 38.8147 -120.5317 61° Northeast 190 219 11,900 240 Climbing Oakland Center
01:18PM 38.8408 -120.4736 60° Northeast 189 217 12,200 300 Climbing Oakland Center
01:19PM 38.8639 -120.4172 62° Northeast 182 209 12,600 300 Climbing Oakland Center
01:20PM 38.8894 -120.3586 61° Northeast 188 216 12,900 60 Climbing Oakland Center
01:21PM 38.9133 -120.2992 63° Northeast 190 219 12,800 -60 Descending Oakland Center
01:22PM 38.9400 -120.2350 62° Northeast 201 231 12,800  Level Oakland Center
01:23PM 38.9750 -120.1542 61° Northeast 218 251 12,800 60 Level Oakland Center
01:24PM 38.9950 -120.1072 61° Northeast 211 243 13,000 60 Climbing Oakland Center
01:25PM 39.0292 -120.0261 62° Northeast 216 249 13,000  Level Oakland Center
01:26PM 39.0583 -119.9592 61° Northeast 215 247 13,000  Level Oakland Center
01:27PM 39.0858 -119.8903 63° Northeast 216 249 13,000  Level Oakland Center
01:28PM 39.1186 -119.8089 63° Northeast 213 245 13,000  Level Oakland Center
01:29PM 39.1469 -119.7414 62° Northeast 213 245 13,000  Level Oakland Center
01:30PM 39.1753 -119.6739 62° Northeast 214 246 13,000  Level Oakland Center
01:31PM 39.2036 -119.6058 62° Northeast 214 246 13,000  Level Oakland Center
01:32PM 39.2317 -119.5381 62° Northeast 214 246 13,000  Level Oakland Center
01:33PM 39.2597 -119.4708 62° Northeast 213 245 13,000  Level Oakland Center
01:34PM 39.2875 -119.4031 62° Northeast 213 245 13,100  Climbing Oakland Center
01:35PM 39.3153 -119.3342 62° Northeast 216 249 13,100  Level Oakland Center
01:36PM 39.3489 -119.2514 62° Northeast 216 249 13,100  Level Oakland Center
01:37PM 39.3772 -119.1825 62° Northeast 217 250 13,100  Level Oakland Center
01:38PM 39.4053 -119.1131 62° Northeast 217 250 13,100  Level Oakland Center
01:39PM 39.4306 -119.0511 62° Northeast 215 247 13,100  Level Oakland Center
01:40PM 39.4578 -118.9833 62° Northeast 213 245 13,100  Level Oakland Center
01:41PM 39.4883 -118.9086 62° Northeast 214 246 13,100  Level Oakland Center
01:42PM 39.5161 -118.8394 62° Northeast 214 246 13,100  Level Oakland Center
01:43PM 39.5444 -118.7697 62° Northeast 216 249 13,100  Level Oakland Center
01:44PM 39.5717 -118.7000 63° Northeast 214 246 13,100 180 Level Oakland Center
01:45PM 39.5983 -118.6336 62° Northeast 208 239 13,500 240 Climbing Oakland Center
01:46PM 39.6236 -118.5708 62° Northeast 198 228 13,700 240 Climbing Oakland Center
01:47PM 39.6536 -118.4947 63° Northeast 197 227 14,000 240 Climbing Oakland Center
01:48PM 39.6783 -118.4322 63° Northeast 196 226 14,300 240 Climbing Oakland Center
01:50PM 39.7036 -118.3681 63° Northeast 198 228 14,500 180 Climbing Oakland Center
01:51PM 39.7289 -118.3039 63° Northeast 199 229 14,700 180 Climbing Oakland Center
01:52PM 39.7539 -118.2397 63° Northeast 198 228 14,900 180 Climbing Oakland Center
01:53PM 39.7797 -118.1750 63° Northeast 201 231 15,100 60 Climbing Oakland Center
01:54PM 39.8064 -118.1081 63° Northeast 206 237 15,100  Level Oakland Center
01:55PM 39.8342 -118.0375 63° Northeast 216 249 15,100  Level Oakland Center
01:56PM 39.8675 -117.9528 63° Northeast 219 252 15,100  Level Oakland Center
01:57PM 39.8947 -117.8808 64° Northeast 221 254 15,100  Level Oakland Center
01:58PM 39.9233 -117.8075 63° Northeast 224 258 15,100 -60 Level Oakland Center
01:59PM 39.9514 -117.7350 63° Northeast 225 259 15,000 -60 Descending Oakland Center
02:00PM 39.9794 -117.6628 63° Northeast 223 257 15,000  Level Oakland Center
02:01PM 40.0081 -117.5900 63° Northeast 225 259 15,000  Level Oakland Center
02:02PM 40.0350 -117.5186 64° Northeast 221 254 15,000  Level Oakland Center
02:03PM 40.0686 -117.4306 63° Northeast 224 258 15,000  Level Oakland Center
02:04PM 40.0958 -117.3597 63° Northeast 221 254 15,000  Level Oakland Center
02:05PM 40.1208 -117.2942 63° Northeast 223 257 15,000  Level Oakland Center
02:06PM 40.1511 -117.2139 64° Northeast 222 255 15,000  Level Oakland Center
02:07PM 40.1772 -117.1453 64° Northeast 221 254 15,000  Level Oakland Center
02:08PM 40.2069 -117.0644 64° Northeast 221 254 15,000  Level Oakland Center
02:09PM 40.2300 -116.9936 67° East 221 254 15,000  Level Oakland Center
02:10PM 40.2578 -116.9128 66° East 221 254 15,000  Level Oakland Center
02:11PM 40.2794 -116.8406 69° East 223 257 15,000  Level Oakland Center
02:12PM 40.3003 -116.7572 72° East 220 253 15,000  Level Oakland Center
02:13PM 40.3156 -116.6844 75° East 218 251 15,000  Level Oakland Center
02:14PM 40.3367 -116.6006 72° East 219 252 15,000  Level Oakland Center
02:15PM 40.3633 -116.5344 62° Northeast 217 250 15,000  Level Oakland Center
02:17PM 40.4031 -116.4350 62° Northeast 215 247 15,000  Level Salt Lake Center
02:18PM 40.4289 -116.3686 63° Northeast 215 247 15,000  Level Salt Lake Center
02:19PM 40.4589 -116.2903 63° Northeast 215 247 15,000  Level Salt Lake Center
02:20PM 40.4844 -116.2233 63° Northeast 215 247 15,000  Level Salt Lake Center
02:21PM 40.5156 -116.1433 63° Northeast 217 250 15,000  Level Salt Lake Center
02:22PM 40.5419 -116.0753 63° Northeast 219 252 15,000  Level Salt Lake Center
02:23PM 40.5706 -115.9953 65° Northeast 218 251 15,000  Level Salt Lake Center
02:24PM 40.5858 -115.9242 74° East 214 246 15,000  Level Salt Lake Center
02:25PM 40.6078 -115.8431 70° East 212 244 15,000  Level Salt Lake Center
02:26PM 40.6197 -115.7689 78° East 214 246 15,000  Level Salt Lake Center
02:27PM 40.6408 -115.6875 71° East 211 243 15,000  Level Salt Lake Center
02:28PM 40.6675 -115.6231 61° Northeast 209 241 15,000  Level Salt Lake Center
02:29PM 40.6942 -115.5564 62° Northeast 212 244 15,000  Level Salt Lake Center
02:30PM 40.7256 -115.4806 61° Northeast 212 244 15,000  Level Salt Lake Center
02:31PM 40.7514 -115.4136 63° Northeast 213 245 15,000  Level Salt Lake Center
02:32PM 40.7833 -115.3361 61° Northeast 215 247 15,000  Level Salt Lake Center
02:33PM 40.8111 -115.2683 62° Northeast 218 251 15,000  Level Salt Lake Center
02:34PM 40.8417 -115.1894 63° Northeast 217 250 15,000  Level Salt Lake Center
02:35PM 40.8667 -115.1219 64° Northeast 215 247 15,000  Level Salt Lake Center
02:36PM 40.8975 -115.0450 62° Northeast 213 245 15,000  Level Salt Lake Center
02:37PM 40.9244 -114.9792 62° Northeast 213 245 15,000  Level Salt Lake Center
02:38PM 40.9544 -114.9011 63° Northeast 212 244 15,000  Level Salt Lake Center
02:39PM 40.9797 -114.8342 63° Northeast 212 244 15,000  Level Salt Lake Center
02:40PM 41.0106 -114.7569 62° Northeast 213 245 15,000  Level Salt Lake Center
02:41PM 41.0356 -114.6911 63° Northeast 210 242 15,000  Level Salt Lake Center
02:42PM 41.0592 -114.6111 69° East 213 245 15,100  Climbing Salt Lake Center
02:44PM 41.0731 -114.5344 76° East 215 247 15,100  Level Salt Lake Center
02:45PM 41.0944 -114.4650 68° East 207 238 15,100  Level Salt Lake Center
02:46PM 41.1264 -114.4028 56° Northeast 202 232 15,100  Level Salt Lake Center
02:47PM 41.1539 -114.3364 61° Northeast 205 236 15,100  Level Salt Lake Center
02:48PM 41.1881 -114.2550 61° Northeast 210 242 15,100  Level Salt Lake Center
02:49PM 41.2169 -114.1867 61° Northeast 211 243 15,100  Level Salt Lake Center
02:50PM 41.2467 -114.1172 60° Northeast 214 246 15,100 -60 Level Salt Lake Center
02:52PM 41.3047 -113.9794 61° Northeast 214 246 15,000  Descending Salt Lake Center
02:53PM 41.3331 -113.9122 61° Northeast 213 245 15,100  Climbing Salt Lake Center
02:54PM 41.3661 -113.8300 62° Northeast 211 243 15,100 -60 Level Salt Lake Center
02:55PM 41.3831 -113.7542 73° East 213 245 15,000  Descending Salt Lake Center
02:56PM 41.3969 -113.6775 76° East 214 246 15,100  Climbing Salt Lake Center
02:57PM 41.4122 -113.6006 75° East 215 247 15,100  Level Salt Lake Center
02:58PM 41.4269 -113.5242 76° East 215 247 15,100 -60 Level Salt Lake Center
02:59PM 41.4419 -113.4478 75° East 214 246 15,000 -60 Descending Salt Lake Center
03:00PM 41.4611 -113.3539 75° East 216 249 15,000  Level Salt Lake Center
03:01PM 41.4772 -113.2767 74° East 216 249 15,100  Climbing Salt Lake Center
03:02PM 41.4914 -113.2006 76° East 215 247 15,000 -60 Descending Salt Lake Center
03:03PM 41.5061 -113.1264 75° East 212 244 15,000 -60 Level Salt Lake Center
03:04PM 41.5206 -113.0517 75° East 210 242 14,900  Descending Salt Lake Center
03:05PM 41.5350 -112.9753 76° East 210 242 15,000  Climbing Salt Lake Center
03:06PM 41.5531 -112.8858 75° East 210 242 14,900 -60 Descending Salt Lake Center
03:07PM 41.5675 -112.8111 75° East 208 239 14,900  Level Salt Lake Center
03:08PM 41.5817 -112.7361 76° East 209 241 14,900  Level Salt Lake Center
03:09PM 41.5961 -112.6619 75° East 208 239 14,900  Level Salt Lake Center
03:10PM 41.6106 -112.5883 75° East 206 237 14,900  Level Salt Lake Center
03:11PM 41.6247 -112.5133 76° East 206 237 14,900  Level Salt Lake Center
03:12PM 41.6414 -112.4250 76° East 204 235 15,000  Climbing Salt Lake Center
03:14PM 41.6544 -112.3517 77° East 204 235 15,000 -60 Level Salt Lake Center
03:15PM 41.6700 -112.2781 74° East 204 235 14,900  Descending Salt Lake Center
03:16PM 41.6836 -112.2031 76° East 207 238 15,000  Climbing Salt Lake Center
03:17PM 41.6972 -112.1286 76° East 208 239 14,900  Descending Salt Lake Center
03:18PM 41.7100 -112.0567 77° East 201 231 15,000  Climbing Salt Lake Center
03:19PM 41.7244 -111.9822 75° East 207 238 15,000  Level Salt Lake Center
03:20PM 41.7403 -111.8931 77° East 206 237 15,000  Level Salt Lake Center
03:21PM 41.7544 -111.8194 76° East 204 235 15,000  Level Salt Lake Center
03:22PM 41.7667 -111.7467 77° East 201 231 15,000  Level Salt Lake Center
03:23PM 41.7808 -111.6742 75° East 201 231 15,000 -60 Level Salt Lake Center
03:24PM 41.7933 -111.6022 77° East 200 230 14,900  Descending Salt Lake Center
03:25PM 41.8111 -111.5297 72° East 203 234 15,000  Climbing Salt Lake Center
03:26PM 41.8356 -111.4442 69° East 204 235 15,000  Level Salt Lake Center
03:27PM 41.8578 -111.3744 67° East 206 237 15,000  Level Salt Lake Center
03:28PM 41.8717 -111.2997 76° East 207 238 15,000  Level Salt Lake Center
03:29PM 41.8850 -111.2228 77° East 208 239 15,000  Level Salt Lake Center
03:30PM 41.8981 -111.1486 77° East 207 238 15,000  Level Salt Lake Center
03:31PM 41.9158 -111.0758 72° East 206 237 15,000 -60 Level Salt Lake Center
03:32PM 41.9386 -110.9883 71° East 208 239 14,900  Descending Salt Lake Center
03:33PM 41.9436 -110.9111 85° East 208 239 15,100 60 Climbing Salt Lake Center
03:34PM 41.9542 -110.8364 79° East 212 244 15,100  Level Salt Lake Center
03:35PM 41.9589 -110.7475 86° East 213 245 15,100  Level Salt Lake Center
03:36PM 41.9619 -110.6719 87° East 213 245 15,100 -60 Level Salt Lake Center
03:37PM 41.9733 -110.5853 80° East 212 244 15,000  Descending Salt Lake Center
03:38PM 41.9872 -110.5128 76° East 210 242 15,100  Climbing Salt Lake Center
03:39PM 42.0017 -110.4281 77° East 208 239 15,100  Level Salt Lake Center
03:40PM 42.0139 -110.3533 78° East 213 245 15,100  Level Salt Lake Center
03:41PM 42.0297 -110.2683 76° East 211 243 15,100  Level Salt Lake Center
03:42PM 42.0378 -110.1931 82° East 212 244 15,100  Level Salt Lake Center
03:43PM 42.0378 -110.1172 90° East 212 244 15,100  Level Salt Lake Center
03:45PM 42.0417 -110.0300 87° East 210 242 15,100  Level Salt Lake Center
03:46PM 42.0447 -109.9544 87° East 211 243 15,100  Level Salt Lake Center
03:47PM 42.0461 -109.8647 89° East 214 246 15,100  Level Salt Lake Center
03:48PM 42.0514 -109.7883 85° East 215 247 15,100  Level Salt Lake Center
03:49PM 42.0647 -109.7006 78° East 214 246 15,100  Level Salt Lake Center
03:50PM 42.0769 -109.6261 78° East 213 245 15,100  Level Salt Lake Center
03:51PM 42.0939 -109.5394 75° East 214 246 15,100  Level Salt Lake Center
03:53PM 42.1225 -109.3775 77° East 213 245 15,100  Level Denver Center
03:54PM 42.1350 -109.3061 77° East 212 244 15,100  Level Salt Lake Center
03:55PM 42.1475 -109.2200 79° East 210 242 15,100 120 Level Salt Lake Center
03:56PM 42.1550 -109.1461 82° East 209 241 15,400 240 Climbing Salt Lake Center
03:57PM 42.1661 -109.0650 80° East 200 230 15,600 180 Climbing Salt Lake Center
03:58PM 42.1767 -108.9969 78° East 196 226 15,800 180 Climbing Salt Lake Center
03:59PM 42.1878 -108.9294 77° East 194 223 16,000 120 Climbing Salt Lake Center
04:00PM 42.2008 -108.8483 78° East 198 228 16,100  Climbing Salt Lake Center
04:01PM 42.2119 -108.7767 78° East 202 232 16,100  Level Salt Lake Center
04:02PM 42.2264 -108.6917 77° East 206 237 16,100  Level Salt Lake Center
04:03PM 42.2383 -108.6169 78° East 209 241 16,100 -60 Level Salt Lake Center
04:04PM 42.2511 -108.5311 79° East 210 242 16,000 -60 Descending Salt Lake Center
04:05PM 42.2633 -108.4578 77° East 209 241 16,000  Level Salt Lake Center
04:06PM 42.2786 -108.3722 76° East 211 243 16,000 -60 Level Salt Lake Center
04:07PM 42.2969 -108.3025 70° East 208 239 15,900  Descending Salt Lake Center
04:08PM 42.3164 -108.2214 72° East 204 235 16,000  Climbing Salt Lake Center
04:09PM 42.3361 -108.1533 69° East 204 235 16,000 -60 Level Salt Lake Center
04:10PM 42.3575 -108.0711 71° East 206 237 15,900  Descending Salt Lake Center
04:11PM 42.3747 -107.9989 72° East 209 241 16,000  Climbing Salt Lake Center
04:12PM 42.3942 -107.9156 72° East 208 239 15,900 -60 Descending Salt Lake Center
04:13PM 42.4108 -107.8425 73° East 210 242 15,900  Level Salt Lake Center
04:15PM 42.4161 -107.7539 85° East 211 243 15,900  Level Salt Lake Center
04:16PM 42.4217 -107.6775 84° East 212 244 15,900 -60 Level Salt Lake Center
04:17PM 42.4236 -107.6011 88° East 211 243 15,800  Descending Salt Lake Center
04:18PM 42.4269 -107.5125 87° East 212 244 15,900  Climbing Salt Lake Center
04:19PM 42.4300 -107.4347 87° East 214 246 15,900 -60 Level Salt Lake Center
04:20PM 42.4328 -107.3444 88° East 216 249 15,800  Descending Salt Lake Center
04:21PM 42.4278 -107.2647 95° East 218 251 15,900 60 Climbing Salt Lake Center
04:22PM 42.4203 -107.1747 96° East 217 250 16,000  Climbing Denver Center
04:23PM 42.4142 -107.0867 95° East 212 244 16,000  Level Denver Center
04:24PM 42.4086 -107.0097 96° East 214 246 16,000  Level Denver Center
04:25PM 42.4183 -106.9200 82° East 216 249 16,000  Level Denver Center
04:26PM 42.4297 -106.8411 79° East 212 244 16,000  Level Denver Center
04:27PM 42.4331 -106.7644 87° East 214 246 16,000  Level Denver Center
04:28PM 42.4367 -106.6775 87° East 212 244 16,000  Level Denver Center
04:29PM 42.4567 -106.6072 69° East 209 241 16,000  Level Denver Center
04:30PM 42.4764 -106.5225 72° East 211 243 16,000  Level Denver Center
04:31PM 42.4900 -106.4492 76° East 210 242 16,000  Level Denver Center
04:32PM 42.5136 -106.3683 68° East 207 238 16,000  Level Denver Center
04:33PM 42.5369 -106.2978 66° East 212 244 16,000  Level Denver Center
04:34PM 42.5617 -106.2142 68° East 214 246 16,000  Level Denver Center
04:35PM 42.5836 -106.1450 67° East 209 241 16,000  Level Denver Center
04:36PM 42.6022 -106.0733 71° East 211 243 16,000  Level Denver Center
04:37PM 42.6281 -105.9897 67° East 214 246 16,000  Level Denver Center
04:38PM 42.6472 -105.9192 70° East 211 243 16,000  Level Denver Center
04:39PM 42.6733 -105.8369 67° East 211 243 16,000  Level Denver Center
04:40PM 42.6967 -105.7653 66° East 214 246 16,000  Level Denver Center
04:41PM 42.7239 -105.6817 66° East 215 247 16,000  Level Denver Center
04:43PM 42.7467 -105.6100 67° East 216 249 16,000  Level Denver Center
04:44PM 42.7744 -105.5283 65° Northeast 214 246 16,000  Level Denver Center
04:45PM 42.7994 -105.4581 64° Northeast 214 246 16,000  Level Denver Center
04:46PM 42.8281 -105.3772 64° Northeast 214 246 16,000  Level Denver Center
04:47PM 42.8472 -105.3067 70° East 211 243 16,000  Level Denver Center
04:48PM 42.8572 -105.2169 81° East 214 246 16,000  Level Denver Center
04:49PM 42.8669 -105.1406 80° East 213 245 16,000  Level Denver Center
04:50PM 42.8817 -105.0531 77° East 212 244 16,000  Level Denver Center
04:51PM 42.8908 -104.9750 81° East 214 246 16,000  Level Denver Center
04:52PM 42.8908 -104.8933 90° East 222 255 16,000  Level Denver Center
04:53PM 42.8781 -104.8014 101° East 223 257 16,000  Level Denver Center
04:54PM 42.8486 -104.7028 112° Southeast 221 254 16,000  Level Denver Center
04:55PM 42.8156 -104.6381 125° Southeast 218 251 16,000  Level Denver Center
04:56PM 42.7914 -104.5558 112° Southeast 215 247 16,000  Level Denver Center
04:57PM 42.8017 -104.4814 79° East 209 241 16,000  Level Denver Center
04:58PM 42.8094 -104.4083 82° East 206 237 16,000  Level Denver Center
04:59PM 42.8194 -104.3211 81° East 207 238 16,000  Level Denver Center
05:00PM 42.8283 -104.2450 81° East 209 241 16,000  Level Denver Center
05:01PM 42.8381 -104.1556 82° East 212 244 16,000  Level Denver Center
05:02PM 42.8467 -104.0769 81° East 216 249 16,000  Level Denver Center
05:03PM 42.8528 -103.9875 85° East 215 247 16,000  Level Denver Center
05:04PM 42.8569 -103.9097 86° East 214 246 16,000  Level Denver Center
05:05PM 42.8586 -103.8203 89° East 212 244 16,000  Level Denver Center
05:07PM 42.8611 -103.7414 87° East 215 247 16,000  Level Denver Center
05:08PM 42.8647 -103.6506 87° East 216 249 16,000  Level Denver Center
05:09PM 42.8681 -103.5725 87° East 215 247 16,000  Level Denver Center
05:10PM 42.8700 -103.4814 88° East 215 247 16,000  Level Denver Center
05:11PM 42.8664 -103.4042 94° East 214 246 16,000  Level Denver Center
05:12PM 42.8614 -103.3142 94° East 213 245 16,000  Level Denver Center
05:13PM 42.8564 -103.2361 95° East 215 247 16,000  Level Denver Center
05:14PM 42.8506 -103.1572 96° East 216 249 16,000  Level Denver Center
05:15PM 42.8481 -103.0686 92° East 214 246 16,000  Level Denver Center
05:16PM 42.8478 -102.9942 90° East 210 242 16,000  Level Denver Center
05:17PM 42.8603 -102.9089 79° East 206 237 16,000  Level Denver Center
05:18PM 42.8697 -102.8364 80° East 204 235 16,000  Level Denver Center
05:19PM 42.8806 -102.7528 80° East 202 232 16,000  Level Denver Center
05:20PM 42.8889 -102.6814 81° East 201 231 16,000 60 Level Denver Center
05:21PM 42.8978 -102.5986 82° East 199 229 16,200 180 Climbing Denver Center
05:22PM 42.9075 -102.5306 79° East 194 223 16,400 180 Climbing Denver Center
05:23PM 42.9153 -102.4511 82° East 190 219 16,600 180 Climbing Denver Center
05:24PM 42.9231 -102.3828 81° East 191 220 16,800 120 Climbing Denver Center
05:25PM 42.9322 -102.3011 81° East 193 222 16,900 60 Climbing Denver Center
05:26PM 42.9397 -102.2286 82° East 201 231 17,000  Climbing Denver Center
05:27PM 42.9486 -102.1442 82° East 204 235 17,000  Level Denver Center
05:28PM 42.9564 -102.0711 82° East 205 236 17,000  Level Denver Center
05:29PM 42.9672 -101.9861 80° East 205 236 17,000  Level Denver Center
05:30PM 42.9739 -101.9122 83° East 206 237 17,000  Level Denver Center
05:31PM 42.9836 -101.8278 81° East 203 234 17,000  Level Denver Center
05:32PM 42.9917 -101.7522 82° East 205 236 17,000  Level Denver Center
05:33PM 43.0000 -101.6806 81° East 201 231 17,000  Level Denver Center
05:34PM 43.0078 -101.5989 83° East 196 226 17,000  Level Denver Center
05:35PM 43.0153 -101.5269 82° East 199 229 17,000  Level Denver Center
05:37PM 43.0242 -101.4422 82° East 201 231 17,000  Level Denver Center
05:38PM 43.0311 -101.3653 83° East 199 229 17,000  Level Denver Center
05:39PM 43.0394 -101.2900 81° East 201 231 17,000  Level Denver Center
05:40PM 43.0464 -101.2156 83° East 199 229 17,000  Level Denver Center
05:41PM 43.0536 -101.1392 83° East 201 231 17,000  Level Denver Center
05:42PM 43.0606 -101.0653 83° East 198 228 17,000  Level Denver Center
05:43PM 43.0692 -100.9908 81° East 200 230 17,000  Level Denver Center
05:44PM 43.0778 -100.9022 82° East 199 229 17,000  Level Denver Center
05:45PM 43.0856 -100.8264 82° East 200 230 17,000  Level Denver Center
05:46PM 43.0928 -100.7525 82° East 198 228 17,000  Level Denver Center
05:47PM 43.1019 -100.6781 80° East 200 230 17,000  Level Denver Center
05:48PM 43.1139 -100.6061 77° East 195 224 17,000  Level Denver Center
05:49PM 43.1256 -100.5322 78° East 199 229 17,000  Level Denver Center
05:50PM 43.1394 -100.4458 78° East 195 224 17,000  Level Denver Center
05:51PM 43.1447 -100.3725 84° East 194 223 17,000  Level Denver Center
05:52PM 43.1522 -100.2994 82° East 194 223 17,100  Climbing Denver Center
05:53PM 43.1583 -100.2250 84° East 196 226 17,100  Level Denver Center
05:54PM 43.1658 -100.1514 82° East 195 224 17,100  Level Denver Center
05:55PM 43.1714 -100.0775 84° East 195 224 17,100  Level Denver Center
05:56PM 43.1794 -99.9906 83° East 193 222 17,100 -60 Level Denver Center
05:57PM 43.1856 -99.9181 83° East 196 226 17,000 -60 Descending Minneapolis Center
05:58PM 43.1933 -99.8294 83° East 195 224 17,000  Level Minneapolis Center
05:59PM 43.1994 -99.7550 84° East 196 226 17,000  Level Minneapolis Center
06:01PM 43.2069 -99.6792 82° East 201 231 17,000  Level Minneapolis Center
06:02PM 43.2122 -99.6169 83° East 204 235 17,000  Level Minneapolis Center
06:03PM 43.2214 -99.5078 83° East 207 238 17,000  Level Minneapolis Center
06:04PM 43.2272 -99.4289 84° East 208 239 17,000  Level Minneapolis Center
06:05PM 43.2342 -99.3503 83° East 209 241 17,100  Climbing Minneapolis Center
06:06PM 43.2403 -99.2711 84° East 210 242 17,100  Level Minneapolis Center
06:07PM 43.2467 -99.1903 84° East 212 244 17,100  Level Minneapolis Center
06:08PM 43.2528 -99.1100 84° East 212 244 17,100  Level Minneapolis Center
06:09PM 43.2608 -99.0142 83° East 212 244 17,100  Level Minneapolis Center
06:10PM 43.2669 -98.9292 84° East 212 244 17,100  Level Minneapolis Center
06:11PM 43.2731 -98.8497 84° East 212 244 17,100  Level Minneapolis Center
06:12PM 43.2794 -98.7689 84° East 212 244 17,100  Level Minneapolis Center
06:13PM 43.2853 -98.6897 84° East 210 242 17,100  Level Minneapolis Center
06:14PM 43.2917 -98.6119 84° East 209 241 17,100  Level Minneapolis Center
06:15PM 43.2978 -98.5325 84° East 209 241 17,100  Level Minneapolis Center
06:16PM 43.3047 -98.4364 84° East 213 245 17,100  Level Minneapolis Center
06:17PM 43.3111 -98.3567 84° East 212 244 17,100  Level Minneapolis Center
06:18PM 43.3164 -98.2761 85° East 213 245 17,100  Level Minneapolis Center
06:19PM 43.3222 -98.1961 84° East 213 245 17,100  Level Minneapolis Center
06:20PM 43.3275 -98.1164 85° East 211 243 17,100  Level Minneapolis Center
06:21PM 43.3339 -98.0356 84° East 214 246 17,100  Level Minneapolis Center
06:22PM 43.3408 -97.9403 84° East 210 242 17,100  Level Minneapolis Center
06:23PM 43.3464 -97.8625 84° East 206 237 17,100  Level Minneapolis Center
06:24PM 43.3503 -97.7983 85° East 209 241 17,100  Level Minneapolis Center
06:25PM 43.3569 -97.7008 85° East 213 245 17,100  Level Minneapolis Center
06:26PM 43.3622 -97.6194 85° East 214 246 17,100  Level Minneapolis Center
06:27PM 43.3689 -97.5208 85° East 217 250 17,100  Level Minneapolis Center
06:28PM 43.3742 -97.4392 85° East 216 249 17,100  Level Minneapolis Center
06:29PM 43.3786 -97.3578 86° East 215 247 17,100  Level Minneapolis Center
06:31PM 43.3850 -97.2742 84° East 218 251 17,100  Level Minneapolis Center
06:32PM 43.3889 -97.1936 86° East 215 247 17,100  Level Minneapolis Center
06:33PM 43.3947 -97.1117 84° East 216 249 17,100  Level Minneapolis Center
06:34PM 43.4003 -97.0139 85° East 215 247 17,100  Level Minneapolis Center
06:35PM 43.4047 -96.9319 86° East 215 247 17,100  Level Minneapolis Center
06:36PM 43.4103 -96.8517 85° East 214 246 17,100  Level Minneapolis Center
06:37PM 43.4147 -96.7697 86° East 215 247 17,100  Level Minneapolis Center
06:38PM 43.4203 -96.6889 85° East 214 246 17,100  Level Minneapolis Center
06:39PM 43.4253 -96.5917 86° East 214 246 17,100  Level Minneapolis Center
06:40PM 43.4303 -96.5114 85° East 212 244 17,100  Level Minneapolis Center
06:41PM 43.4350 -96.4317 85° East 211 243 17,100  Level Minneapolis Center
06:42PM 43.4389 -96.3536 86° East 209 241 17,100  Level Minneapolis Center
06:43PM 43.4436 -96.2728 85° East 212 244 17,100  Level Minneapolis Center
06:44PM 43.4481 -96.1925 86° East 212 244 17,100 -60 Level Minneapolis Center
06:45PM 43.4528 -96.0950 86° East 215 247 17,000 -60 Descending Minneapolis Center
06:46PM 43.4569 -96.0128 86° East 218 251 17,000  Level Minneapolis Center
06:47PM 43.4611 -95.9314 86° East 215 247 17,000  Level Minneapolis Center
06:48PM 43.4539 -95.8467 97° East 223 257 17,000  Level Minneapolis Center
06:49PM 43.4294 -95.7708 114° Southeast 222 255 17,000  Level Minneapolis Center
06:50PM 43.4208 -95.6772 97° East 215 247 17,000  Level Minneapolis Center
06:51PM 43.4267 -95.5958 84° East 216 249 17,000  Level Minneapolis Center
06:52PM 43.4361 -95.5178 81° East 212 244 17,000  Level Minneapolis Center
06:53PM 43.4367 -95.4369 89° East 213 245 17,000  Level Minneapolis Center
06:54PM 43.4425 -95.3564 84° East 213 245 17,000  Level Minneapolis Center
06:55PM 43.4467 -95.2753 86° East 212 244 17,000  Level Minneapolis Center
06:56PM 43.4531 -95.1778 85° East 213 245 17,000  Level Minneapolis Center
06:57PM 43.4575 -95.0961 86° East 214 246 17,000  Level Minneapolis Center
06:58PM 43.4636 -95.0161 84° East 212 244 17,000  Level Minneapolis Center
06:59PM 43.4694 -94.9342 84° East 215 247 17,000  Level Minneapolis Center
07:01PM 43.4736 -94.8528 86° East 214 246 17,000  Level Minneapolis Center
07:02PM 43.4781 -94.7725 86° East 211 243 17,000  Level Minneapolis Center
07:03PM 43.4844 -94.6756 85° East 213 245 17,000  Level Minneapolis Center
07:04PM 43.4894 -94.5942 85° East 214 246 17,000  Level Minneapolis Center
07:05PM 43.4942 -94.5136 85° East 213 245 17,000  Level Minneapolis Center
07:06PM 43.4983 -94.4339 86° East 211 243 17,000  Level Minneapolis Center
07:07PM 43.5042 -94.3519 84° East 213 245 17,000  Level Minneapolis Center
07:08PM 43.5089 -94.2553 86° East 212 244 17,000  Level Minneapolis Center
07:09PM 43.5119 -94.1872 86° East 216 249 17,000  Level Minneapolis Center
07:10PM 43.5172 -94.0922 86° East 211 243 17,000  Level Minneapolis Center
07:11PM 43.5217 -94.0258 85° East 215 247 17,000  Level Minneapolis Center
07:12PM 43.5269 -93.9292 86° East 214 246 17,000  Level Minneapolis Center
07:13PM 43.5300 -93.8461 87° East 217 250 17,000  Level Minneapolis Center
07:14PM 43.5361 -93.7503 85° East 213 245 17,000  Level Minneapolis Center
07:15PM 43.5394 -93.6692 87° East 213 245 17,000  Level Minneapolis Center
07:16PM 43.5447 -93.5825 85° East 216 249 17,000  Level Minneapolis Center
07:17PM 43.5492 -93.5000 86° East 217 250 17,000  Level Minneapolis Center
07:18PM 43.5533 -93.4167 86° East 219 252 17,000  Level Minneapolis Center
07:19PM 43.5561 -93.3336 87° East 218 251 17,000  Level Minneapolis Center
07:20PM 43.5606 -93.2500 86° East 219 252 17,000  Level Minneapolis Center
07:21PM 43.5658 -93.1492 86° East 221 254 17,000  Level Minneapolis Center
07:22PM 43.5700 -93.0558 86° East 220 253 17,000  Level Minneapolis Center
07:23PM 43.5728 -92.9736 87° East 218 251 17,000  Level Minneapolis Center
07:25PM 43.5758 -92.8739 88° East 218 251 17,000  Level Minneapolis Center
07:26PM 43.5750 -92.7894 91° East 221 254 17,000  Level Minneapolis Center
07:27PM 43.5747 -92.7036 90° East 223 257 17,000  Level Minneapolis Center
07:28PM 43.5747 -92.6192 90° East 223 257 17,000  Level Minneapolis Center
07:29PM 43.5736 -92.5353 91° East 221 254 17,000 -300 Level Minneapolis Center
07:30PM 43.5725 -92.4303 91° East 229 264 16,500 -540 Descending Minneapolis Center
07:31PM 43.5725 -92.3353 90° East 243 280 16,000 -540 Descending Minneapolis Center
07:32PM 43.5717 -92.2425 91° East 244 281 15,500 -540 Descending Minneapolis Center
07:33PM 43.5711 -92.1506 90° East 241 277 15,000 -480 Descending Minneapolis Center
07:34PM 43.5692 -92.0594 92° East 241 277 14,600 -540 Descending Minneapolis Center
07:35PM 43.5683 -91.9464 91° East 247 284 14,000 -540 Descending Minneapolis Center
07:36PM 43.5664 -91.8528 92° East 246 283 13,500 -480 Descending Minneapolis Center
07:37PM 43.5656 -91.7783 91° East 246 283 13,100 -540 Descending Minneapolis Center
07:38PM 43.5639 -91.6700 91° East 238 274 12,500 -600 Descending Minneapolis Center
07:39PM 43.5628 -91.5814 91° East 234 269 11,900 -600 Descending Minneapolis Center
07:40PM 43.5614 -91.4725 91° East 236 272 11,300 -600 Descending Minneapolis Center
07:41PM 43.5592 -91.3858 92° East 232 267 10,700 -600 Descending Minneapolis Center
07:42PM 43.5578 -91.2967 91° East 228 262 10,100 -540 Descending Minneapolis Center
07:43PM 43.5561 -91.2217 92° East 224 258 9,600 -600 Descending Minneapolis Center
07:44PM 43.5539 -91.1219 92° East 217 250 8,900 -600 Descending Minneapolis Center
07:45PM 43.5536 -91.0711 90° East 215 247 8,500 -600 Descending Chicago Center
07:46PM 43.5519 -90.9722 91° East 216 249 7,900 -540 Descending Chicago Center
07:47PM 43.5489 -90.8589 92° East 223 257 7,300 -540 Descending Minneapolis Center
07:48PM 43.5472 -90.7700 91° East 223 257 6,700 -540 Descending Minneapolis Center
07:49PM 43.5453 -90.6878 92° East 222 255 6,300 -480 Descending Minneapolis Center
07:50PM 43.5433 -90.5981 92° East 226 260 5,800 -540 Descending Minneapolis Center
07:51PM 43.5417 -90.5286 92° East 224 258 5,400 -420 Descending Chicago Center
07:52PM 43.5408 -90.4353 91° East 225 259 5,100 -300 Descending Chicago Center